Time,TemperatureF,DewpointF,PressureIn,WindDirection,WindDirectionDegrees,WindSpeedMPH,WindSpeedGustMPH,Humidity,HourlyPrecipIn,Conditions,Clouds,dailyrainin,SoftwareType,DateUTC
2013-04-07 00:03:00,31.0,12.0,30.28,ENE,65,0.0,0.0,45,0.00,,,0.00,,2013-04-07 04:03:00,
2013-04-07 00:14:00,31.0,12.0,30.28,ENE,65,0.0,0.0,45,0.00,,,0.00,,2013-04-07 04:14:00,
2013-04-07 00:23:00,32.0,13.0,30.28,ENE,65,0.0,0.0,44,0.00,,,0.00,,2013-04-07 04:23:00,
2013-04-07 00:32:00,33.0,9.0,30.28,ENE,65,0.0,0.0,36,0.00,,,0.00,,2013-04-07 04:32:00,
2013-04-07 00:43:00,33.0,9.0,30.28,ENE,65,0.0,0.0,36,0.00,,,0.00,,2013-04-07 04:43:00,
2013-04-07 00:52:00,34.0,12.0,30.28,ENE,65,0.0,0.0,40,0.00,,,0.00,,2013-04-07 04:52:00,
2013-04-07 01:02:00,32.0,12.0,30.27,ENE,65,0.0,0.0,43,0.00,,,0.00,,2013-04-07 05:02:00,
2013-04-07 01:12:00,32.0,12.0,30.27,ENE,65,0.0,0.0,43,0.00,,,0.00,,2013-04-07 05:12:00,
2013-04-07 01:23:00,29.0,13.0,30.27,ENE,65,0.0,0.0,51,0.00,,,0.00,,2013-04-07 05:23:00,
2013-04-07 01:33:00,29.0,13.0,30.26,ENE,65,0.0,0.0,50,0.00,,,0.00,,2013-04-07 05:33:00,
2013-04-07 01:43:00,29.0,13.0,30.26,ENE,65,0.0,0.0,50,0.00,,,0.00,,2013-04-07 05:43:00,
2013-04-07 01:52:00,30.0,12.0,30.26,ENE,65,0.0,0.0,46,0.00,,,0.00,,2013-04-07 05:52:00,
2013-04-07 02:02:00,30.0,13.0,30.26,ENE,65,0.0,0.0,48,0.00,,,0.00,,2013-04-07 06:02:00,
2013-04-07 02:12:00,30.0,13.0,30.26,ENE,65,0.0,0.0,48,0.00,,,0.00,,2013-04-07 06:12:00,
2013-04-07 02:22:00,30.0,14.0,30.26,ENE,65,0.0,0.0,50,0.00,,,0.00,,2013-04-07 06:22:00,
2013-04-07 02:32:00,29.0,14.0,30.25,ENE,65,0.0,0.0,53,0.00,,,0.00,,2013-04-07 06:32:00,
2013-04-07 02:42:00,29.0,14.0,30.25,ENE,65,0.0,0.0,53,0.00,,,0.00,,2013-04-07 06:42:00,
2013-04-07 02:52:00,29.0,14.0,30.25,ENE,65,0.0,0.0,52,0.00,,,0.00,,2013-04-07 06:52:00,
2013-04-07 03:02:00,30.0,15.0,30.24,ENE,65,0.0,0.0,54,0.00,,,0.00,,2013-04-07 07:02:00,
2013-04-07 03:12:00,30.0,15.0,30.24,ENE,65,0.0,0.0,54,0.00,,,0.00,,2013-04-07 07:12:00,
2013-04-07 03:22:00,30.0,16.0,30.23,ENE,65,0.0,0.0,55,0.00,,,0.00,,2013-04-07 07:22:00,
2013-04-07 03:33:00,29.0,16.0,30.23,ENE,65,0.0,0.0,58,0.00,,,0.00,,2013-04-07 07:33:00,
2013-04-07 03:42:00,29.0,16.0,30.23,ENE,65,0.0,0.0,58,0.00,,,0.00,,2013-04-07 07:42:00,
2013-04-07 03:52:00,29.0,18.0,30.23,ENE,65,0.0,0.0,62,0.00,,,0.00,,2013-04-07 07:52:00,
2013-04-07 04:02:00,29.0,19.0,30.23,ENE,65,0.0,0.0,65,0.00,,,0.00,,2013-04-07 08:02:00,
2013-04-07 04:12:00,29.0,19.0,30.23,ENE,65,0.0,0.0,65,0.00,,,0.00,,2013-04-07 08:12:00,
2013-04-07 04:22:00,29.0,19.0,30.22,ENE,65,0.0,0.0,66,0.00,,,0.00,,2013-04-07 08:22:00,
2013-04-07 04:33:00,28.0,18.0,30.22,ENE,65,0.0,0.0,66,0.00,,,0.00,,2013-04-07 08:33:00,
2013-04-07 04:42:00,28.0,18.0,30.22,ENE,65,0.0,0.0,66,0.00,,,0.00,,2013-04-07 08:42:00,
2013-04-07 04:53:00,28.0,19.0,30.22,ENE,65,0.0,0.0,68,0.00,,,0.00,,2013-04-07 08:53:00,
2013-04-07 05:02:00,28.0,20.0,30.22,ENE,65,0.0,0.0,70,0.00,,,0.00,,2013-04-07 09:02:00,
2013-04-07 05:12:00,28.0,20.0,30.22,ENE,65,0.0,0.0,70,0.00,,,0.00,,2013-04-07 09:12:00,
2013-04-07 05:22:00,27.0,19.0,30.22,ENE,65,0.0,0.0,71,0.00,,,0.00,,2013-04-07 09:22:00,
2013-04-07 05:33:00,27.0,20.0,30.22,ENE,65,0.0,0.0,73,0.00,,,0.00,,2013-04-07 09:33:00,
2013-04-07 05:43:00,27.0,20.0,30.22,ENE,65,0.0,0.0,73,0.00,,,0.00,,2013-04-07 09:43:00,
2013-04-07 05:54:00,27.0,19.0,30.23,ENE,65,0.0,0.0,70,0.00,,,0.00,,2013-04-07 09:54:00,
2013-04-07 06:04:00,27.0,19.0,30.23,ENE,65,0.0,0.0,71,0.00,,,0.00,,2013-04-07 10:04:00,
2013-04-07 06:14:00,27.0,19.0,30.23,ENE,65,0.0,0.0,71,0.00,,,0.00,,2013-04-07 10:14:00,
2013-04-07 06:23:00,27.0,20.0,30.23,ENE,65,0.0,0.0,73,0.00,,,0.00,,2013-04-07 10:23:00,
2013-04-07 06:33:00,27.0,20.0,30.23,ENE,65,0.0,0.0,73,0.00,,,0.00,,2013-04-07 10:33:00,
2013-04-07 06:43:00,27.0,20.0,30.23,ENE,65,0.0,0.0,73,0.00,,,0.00,,2013-04-07 10:43:00,
2013-04-07 06:54:00,27.0,20.0,30.24,ENE,65,0.0,0.0,75,0.00,,,0.00,,2013-04-07 10:54:00,
2013-04-07 07:03:00,27.0,20.0,30.24,ENE,65,0.0,0.0,74,0.00,,,0.00,,2013-04-07 11:03:00,
2013-04-07 07:12:00,27.0,20.0,30.24,ENE,65,0.0,0.0,74,0.00,,,0.00,,2013-04-07 11:12:00,
2013-04-07 07:23:00,29.0,20.0,30.25,NW,316,0.0,0.0,70,0.00,,,0.00,,2013-04-07 11:23:00,
2013-04-07 07:33:00,29.0,21.0,30.26,NW,316,0.0,0.0,71,0.00,,,0.00,,2013-04-07 11:33:00,
2013-04-07 07:43:00,29.0,21.0,30.26,NW,316,0.0,0.0,71,0.00,,,0.00,,2013-04-07 11:43:00,
2013-04-07 07:53:00,29.0,20.0,30.26,NW,316,0.0,0.0,70,0.00,,,0.00,,2013-04-07 11:53:00,
2013-04-07 08:02:00,30.0,21.0,30.26,NW,316,0.0,1.0,70,0.00,,,0.00,,2013-04-07 12:02:00,
2013-04-07 08:12:00,30.0,21.0,30.26,NW,316,0.0,1.0,70,0.00,,,0.00,,2013-04-07 12:12:00,
2013-04-07 08:23:00,32.0,23.0,30.27,NW,316,0.0,1.0,68,0.00,,,0.00,,2013-04-07 12:23:00,
2013-04-07 08:34:00,34.0,23.0,30.27,NW,313,0.0,3.0,65,0.00,,,0.00,,2013-04-07 12:34:00,
2013-04-07 08:43:00,34.0,23.0,30.27,NW,313,0.0,3.0,65,0.00,,,0.00,,2013-04-07 12:43:00,
2013-04-07 08:54:00,37.0,26.0,30.26,West,271,0.0,2.0,63,0.00,,,0.00,,2013-04-07 12:54:00,
2013-04-07 09:04:00,38.0,26.0,30.25,West,263,0.0,3.0,62,0.00,,,0.00,,2013-04-07 13:04:00,
2013-04-07 09:13:00,38.0,26.0,30.25,West,263,0.0,3.0,62,0.00,,,0.00,,2013-04-07 13:13:00,
2013-04-07 09:23:00,39.0,27.0,30.25,NW,312,3.0,3.0,62,0.00,,,0.00,,2013-04-07 13:23:00,
2013-04-07 09:33:00,41.0,27.0,30.25,West,275,2.0,5.0,58,0.00,,,0.00,,2013-04-07 13:33:00,
2013-04-07 09:42:00,41.0,27.0,30.25,West,275,2.0,5.0,58,0.00,,,0.00,,2013-04-07 13:42:00,
2013-04-07 09:52:00,42.0,26.0,30.23,WNW,290,2.0,7.0,52,0.00,,,0.00,,2013-04-07 13:52:00,
2013-04-07 10:02:00,44.0,26.0,30.23,WNW,302,3.0,8.0,49,0.00,,,0.00,,2013-04-07 14:02:00,
2013-04-07 10:12:00,44.0,26.0,30.23,WNW,302,3.0,8.0,49,0.00,,,0.00,,2013-04-07 14:12:00,
2013-04-07 10:23:00,44.0,23.0,30.22,NW,321,4.0,6.0,44,0.00,,,0.00,,2013-04-07 14:23:00,
2013-04-07 10:33:00,45.0,23.0,30.22,WSW,252,4.0,10.0,41,0.00,,,0.00,,2013-04-07 14:33:00,
2013-04-07 10:43:00,45.0,23.0,30.22,WSW,252,4.0,10.0,41,0.00,,,0.00,,2013-04-07 14:43:00,
2013-04-07 10:53:00,47.0,21.0,30.21,SW,219,6.0,9.0,35,0.00,,,0.00,,2013-04-07 14:53:00,
2013-04-07 11:03:00,46.0,19.0,30.20,West,264,9.0,17.0,33,0.00,,,0.00,,2013-04-07 15:03:00,
2013-04-07 11:13:00,46.0,22.0,30.20,SSW,205,1.0,11.0,38,0.00,,,0.00,,2013-04-07 15:13:00,
2013-04-07 11:22:00,46.0,22.0,30.20,SSW,205,1.0,11.0,38,0.00,,,0.00,,2013-04-07 15:22:00,
2013-04-07 11:45:00,46.0,21.0,30.19,WSW,251,5.0,7.0,36,0.00,,,0.00,,2013-04-07 15:45:00,
2013-04-07 11:53:00,46.0,21.0,30.17,NNW,345,4.0,12.0,37,0.00,,,0.00,,2013-04-07 15:53:00,
2013-04-07 12:04:00,47.0,23.0,30.17,NNW,347,7.0,13.0,39,0.00,,,0.00,,2013-04-07 16:04:00,
2013-04-07 12:13:00,47.0,23.0,30.17,NNW,347,7.0,13.0,39,0.00,,,0.00,,2013-04-07 16:13:00,
2013-04-07 12:24:00,48.0,24.0,30.15,WNW,291,8.0,12.0,39,0.00,,,0.00,,2013-04-07 16:24:00,
2013-04-07 12:33:00,49.0,23.0,30.14,WNW,302,6.0,13.0,35,0.00,,,0.00,,2013-04-07 16:33:00,
2013-04-07 12:43:00,49.0,23.0,30.14,WNW,302,6.0,13.0,35,0.00,,,0.00,,2013-04-07 16:43:00,
2013-04-07 12:54:00,51.0,23.0,30.14,West,277,6.0,9.0,33,0.00,,,0.00,,2013-04-07 16:54:00,
2013-04-07 13:04:00,52.0,23.0,30.14,West,274,10.0,14.0,32,0.00,,,0.00,,2013-04-07 17:04:00,
2013-04-07 13:13:00,52.0,23.0,30.14,West,274,10.0,14.0,32,0.00,,,0.00,,2013-04-07 17:13:00,
2013-04-07 13:23:00,53.0,22.0,30.11,WNW,290,4.0,15.0,30,0.00,,,0.00,,2013-04-07 17:23:00,
2013-04-07 13:33:00,54.0,24.0,30.10,West,274,5.0,14.0,31,0.00,,,0.00,,2013-04-07 17:33:00,
2013-04-07 13:43:00,54.0,24.0,30.10,West,274,5.0,14.0,31,0.00,,,0.00,,2013-04-07 17:43:00,
2013-04-07 13:54:00,55.0,26.0,30.10,NW,316,1.0,12.0,33,0.00,,,0.00,,2013-04-07 17:54:00,
2013-04-07 14:02:00,52.0,24.0,30.08,WNW,290,5.0,11.0,33,0.00,,,0.00,,2013-04-07 18:02:00,
2013-04-07 14:13:00,52.0,24.0,30.08,WNW,290,5.0,11.0,33,0.00,,,0.00,,2013-04-07 18:13:00,
2013-04-07 14:23:00,53.0,27.0,30.07,NW,306,7.0,16.0,37,0.00,,,0.00,,2013-04-07 18:23:00,
2013-04-07 14:33:00,54.0,29.0,30.06,West,281,4.0,24.0,38,0.00,,,0.00,,2013-04-07 18:33:00,
2013-04-07 14:43:00,54.0,29.0,30.06,West,281,4.0,24.0,38,0.00,,,0.00,,2013-04-07 18:43:00,
2013-04-07 14:52:00,54.0,30.0,30.06,West,276,10.0,14.0,39,0.00,,,0.00,,2013-04-07 18:52:00,
2013-04-07 15:03:00,54.0,28.0,30.06,WNW,291,6.0,11.0,37,0.00,,,0.00,,2013-04-07 19:03:00,
2013-04-07 15:13:00,54.0,28.0,30.06,WNW,291,6.0,11.0,37,0.00,,,0.00,,2013-04-07 19:13:00,
2013-04-07 15:22:00,54.0,30.0,30.04,SW,229,6.0,19.0,40,0.00,,,0.00,,2013-04-07 19:22:00,
2013-04-07 15:33:00,53.0,31.0,30.04,WNW,283,10.0,16.0,43,0.00,,,0.00,,2013-04-07 19:33:00,
2013-04-07 15:42:00,53.0,31.0,30.04,WNW,283,10.0,16.0,43,0.00,,,0.00,,2013-04-07 19:42:00,
2013-04-07 15:55:00,53.0,31.0,30.03,West,281,5.0,13.0,43,0.00,,,0.00,,2013-04-07 19:55:00,
2013-04-07 16:03:00,54.0,33.0,30.03,West,261,10.0,17.0,44,0.00,,,0.00,,2013-04-07 20:03:00,
2013-04-07 16:13:00,54.0,33.0,30.03,West,261,10.0,17.0,44,0.00,,,0.00,,2013-04-07 20:13:00,
2013-04-07 16:22:00,53.0,32.0,30.03,WNW,292,10.0,12.0,45,0.00,,,0.00,,2013-04-07 20:22:00,
2013-04-07 16:33:00,53.0,33.0,30.02,WNW,293,2.0,11.0,47,0.00,,,0.00,,2013-04-07 20:33:00,
2013-04-07 16:43:00,53.0,33.0,30.02,WNW,293,2.0,11.0,47,0.00,,,0.00,,2013-04-07 20:43:00,
2013-04-07 16:55:00,53.0,34.0,30.00,West,259,2.0,12.0,49,0.00,,,0.00,,2013-04-07 20:55:00,
2013-04-07 17:03:00,52.0,34.0,30.00,WNW,283,6.0,13.0,50,0.00,,,0.00,,2013-04-07 21:03:00,
2013-04-07 17:13:00,52.0,34.0,30.00,WNW,283,6.0,13.0,50,0.00,,,0.00,,2013-04-07 21:13:00,
2013-04-07 17:23:00,52.0,34.0,29.98,West,277,6.0,18.0,50,0.00,,,0.00,,2013-04-07 21:23:00,
2013-04-07 17:34:00,51.0,34.0,29.98,SW,229,5.0,14.0,53,0.00,,,0.00,,2013-04-07 21:34:00,
2013-04-07 17:44:00,51.0,34.0,29.98,SW,229,5.0,14.0,53,0.00,,,0.00,,2013-04-07 21:44:00,
2013-04-07 17:53:00,50.0,34.0,29.97,WNW,283,10.0,13.0,55,0.00,,,0.00,,2013-04-07 21:53:00,
2013-04-07 18:04:00,50.0,35.0,29.98,WSW,252,10.0,14.0,56,0.00,,,0.00,,2013-04-07 22:04:00,
2013-04-07 18:14:00,50.0,35.0,29.98,WSW,252,10.0,14.0,56,0.00,,,0.00,,2013-04-07 22:14:00,
2013-04-07 18:24:00,49.0,35.0,29.98,WNW,291,2.0,12.0,58,0.00,,,0.00,,2013-04-07 22:24:00,
2013-04-07 18:34:00,49.0,35.0,29.99,WSW,238,5.0,11.0,59,0.00,,,0.00,,2013-04-07 22:34:00,
2013-04-07 18:43:00,49.0,35.0,29.99,WSW,238,5.0,11.0,59,0.00,,,0.00,,2013-04-07 22:43:00,
2013-04-07 18:53:00,48.0,35.0,30.01,West,281,4.0,15.0,61,0.00,,,0.00,,2013-04-07 22:53:00,
2013-04-07 19:03:00,48.0,35.0,30.00,West,264,5.0,17.0,60,0.00,,,0.00,,2013-04-07 23:03:00,
2013-04-07 19:13:00,48.0,35.0,30.00,West,264,5.0,17.0,60,0.00,,,0.00,,2013-04-07 23:13:00,
2013-04-07 19:22:00,48.0,35.0,30.00,West,259,3.0,10.0,61,0.00,,,0.00,,2013-04-07 23:22:00,
2013-04-07 19:32:00,47.0,35.0,30.00,West,265,2.0,10.0,63,0.00,,,0.00,,2013-04-07 23:32:00,
2013-04-07 19:43:00,47.0,35.0,30.00,West,265,2.0,10.0,63,0.00,,,0.00,,2013-04-07 23:43:00,
2013-04-07 19:52:00,47.0,36.0,30.00,West,265,4.0,9.0,65,0.00,,,0.00,,2013-04-07 23:52:00,
2013-04-07 20:02:00,47.0,37.0,29.99,WSW,250,3.0,7.0,67,0.00,,,0.00,,2013-04-08 00:02:00,
2013-04-07 20:12:00,47.0,37.0,29.99,WSW,250,3.0,7.0,67,0.00,,,0.00,,2013-04-08 00:12:00,
2013-04-07 20:22:00,47.0,37.0,30.00,West,269,0.0,5.0,69,0.00,,,0.00,,2013-04-08 00:22:00,
2013-04-07 20:33:00,47.0,38.0,30.00,WSW,255,5.0,6.0,70,0.00,,,0.00,,2013-04-08 00:33:00,
2013-04-07 20:42:00,47.0,38.0,30.00,WSW,255,5.0,6.0,70,0.00,,,0.00,,2013-04-08 00:42:00,
2013-04-07 20:53:00,47.0,38.0,30.01,West,279,2.0,12.0,71,0.00,,,0.00,,2013-04-08 00:53:00,
2013-04-07 21:03:00,46.0,37.0,30.00,SW,236,2.0,4.0,72,0.00,,,0.00,,2013-04-08 01:03:00,
2013-04-07 21:12:00,46.0,37.0,30.00,SW,236,2.0,4.0,72,0.00,,,0.00,,2013-04-08 01:12:00,
2013-04-07 21:22:00,46.0,38.0,30.00,SW,229,3.0,9.0,73,0.00,,,0.00,,2013-04-08 01:22:00,
2013-04-07 21:33:00,45.0,37.0,30.00,West,265,3.0,11.0,74,0.00,,,0.00,,2013-04-08 01:33:00,
2013-04-07 21:44:00,45.0,37.0,30.00,West,265,3.0,11.0,74,0.00,,,0.00,,2013-04-08 01:44:00,
2013-04-07 21:53:00,45.0,37.0,29.99,West,275,3.0,11.0,74,0.00,,,0.00,,2013-04-08 01:53:00,
2013-04-07 22:03:00,45.0,38.0,29.98,WNW,286,4.0,11.0,76,0.00,,,0.00,,2013-04-08 02:03:00,
2013-04-07 22:12:00,45.0,38.0,29.98,WNW,286,4.0,11.0,76,0.00,,,0.00,,2013-04-08 02:12:00,
2013-04-07 22:22:00,45.0,38.0,29.98,West,262,1.0,6.0,76,0.00,,,0.00,,2013-04-08 02:22:00,
2013-04-07 22:33:00,45.0,38.0,29.98,SSW,194,2.0,6.0,77,0.00,,,0.00,,2013-04-08 02:33:00,
2013-04-07 22:47:00,45.0,38.0,29.98,SSW,194,2.0,6.0,77,0.00,,,0.00,,2013-04-08 02:47:00,
2013-04-07 22:55:00,45.0,39.0,29.98,WNW,297,2.0,5.0,78,0.00,,,0.00,,2013-04-08 02:55:00,
2013-04-07 23:08:00,45.0,39.0,29.97,WNW,284,3.0,7.0,79,0.00,,,0.00,,2013-04-08 03:08:00,
2013-04-07 23:15:00,45.0,39.0,29.97,WNW,284,3.0,7.0,79,0.00,,,0.00,,2013-04-08 03:15:00,
2013-04-07 23:25:00,45.0,39.0,29.97,WNW,283,3.0,8.0,80,0.00,,,0.00,,2013-04-08 03:25:00,
2013-04-07 23:34:00,45.0,40.0,29.97,WNW,287,3.0,7.0,81,0.00,,,0.00,,2013-04-08 03:34:00,
2013-04-07 23:47:00,45.0,40.0,29.97,WNW,287,3.0,7.0,81,0.00,,,0.00,,2013-04-08 03:47:00,
2013-04-07 23:58:00,45.0,40.0,29.96,WNW,302,3.0,6.0,82,0.00,,,0.00,,2013-04-08 03:58:00,